createdAt,value
2023-02-23T00:02:20.371Z,6.85
2023-02-23T00:04:48.263Z,5.90
2023-02-23T00:07:19.663Z,6.43
2023-02-23T00:09:47.697Z,5.82
2023-02-23T00:12:17.830Z,5.57
2023-02-23T00:14:46.421Z,6.60
2023-02-23T00:17:15.397Z,6.93
2023-02-23T00:19:45.834Z,7.30
2023-02-23T00:22:12.858Z,6.55
2023-02-23T00:24:43.672Z,6.30
2023-02-23T00:27:17.650Z,7.50
2023-02-23T00:29:49.862Z,8.75
2023-02-23T00:32:20.668Z,7.75
2023-02-23T00:34:51.754Z,8.13
2023-02-23T00:37:20.543Z,8.00
2023-02-23T00:39:48.841Z,7.28
2023-02-23T00:42:17.761Z,7.18
2023-02-23T00:44:47.645Z,7.97
2023-02-23T00:47:16.168Z,7.60
2023-02-23T00:49:45.327Z,7.32
2023-02-23T00:52:15.619Z,7.20
2023-02-23T00:54:42.513Z,6.60
2023-02-23T00:57:09.446Z,6.60
2023-02-23T00:59:37.549Z,6.35
2023-02-23T01:02:06.239Z,7.20
2023-02-23T01:04:34.427Z,7.45
2023-02-23T01:07:04.325Z,6.78
2023-02-23T01:09:32.260Z,7.30
2023-02-23T01:12:03.349Z,8.27
2023-02-23T01:14:32.961Z,7.68
2023-02-23T01:17:01.391Z,7.57
2023-02-23T01:19:34.320Z,7.85
2023-02-23T01:22:02.487Z,7.95
2023-02-23T01:24:31.097Z,7.45
2023-02-23T01:26:59.478Z,7.68
2023-02-23T01:29:28.169Z,7.43
2023-02-23T01:31:56.988Z,7.78
2023-02-23T01:34:26.627Z,7.60
2023-02-23T01:36:54.212Z,8.40
2023-02-23T01:39:22.834Z,9.07
2023-02-23T01:41:53.028Z,8.88
2023-02-23T01:44:21.686Z,8.40
2023-02-23T01:46:51.501Z,9.35
2023-02-23T01:49:26.983Z,10.27
2023-02-23T01:52:08.833Z,11.98
2023-02-23T01:54:40.206Z,10.35
2023-02-23T01:57:13.164Z,14.82
2023-02-23T01:59:45.624Z,15.50
2023-02-23T02:02:15.609Z,15.70
2023-02-23T02:04:45.058Z,15.27
2023-02-23T02:07:16.255Z,14.60
2023-02-23T02:10:05.699Z,15.52
2023-02-23T02:12:34.932Z,12.52
2023-02-23T02:15:06.421Z,13.15
2023-02-23T02:18:03.746Z,12.07
2023-02-23T02:23:53.474Z,10.63
2023-02-23T02:26:41.703Z,10.30
2023-02-23T02:29:22.831Z,9.38
2023-02-23T02:32:11.576Z,10.48
2023-02-23T02:35:12.437Z,10.57
2023-02-23T02:37:45.133Z,11.25
2023-02-23T02:40:26.932Z,10.57
2023-02-23T02:43:14.506Z,9.57
2023-02-23T02:46:06.599Z,9.80
2023-02-23T02:48:43.761Z,9.85
2023-02-23T02:51:24.833Z,10.20
2023-02-23T02:54:07.968Z,9.13
2023-02-23T02:56:40.902Z,9.70
2023-02-23T02:59:30.671Z,10.63
2023-02-23T03:02:15.007Z,10.30
2023-02-23T03:04:59.328Z,11.85
2023-02-23T03:07:51.703Z,11.88
2023-02-23T03:10:46.918Z,11.15
2023-02-23T03:13:58.926Z,10.13
2023-02-23T03:16:48.281Z,11.77
2023-02-23T03:19:46.100Z,11.55
2023-02-23T03:22:47.152Z,9.98
2023-02-23T03:25:36.657Z,11.48
2023-02-23T03:28:42.308Z,11.63
2023-02-23T03:31:31.577Z,11.45
2023-02-23T03:34:30.991Z,11.98
2023-02-23T03:37:25.853Z,9.50
2023-02-23T03:40:20.554Z,8.20
2023-02-23T03:43:08.218Z,8.88
2023-02-23T03:45:52.776Z,9.45
2023-02-23T03:48:36.068Z,10.13
2023-02-23T03:51:23.402Z,8.63
2023-02-23T03:54:13.743Z,8.82
2023-02-23T03:57:02.058Z,8.20
2023-02-23T03:59:50.773Z,8.75
2023-02-23T04:02:35.965Z,9.50
2023-02-23T04:05:24.725Z,9.52
2023-02-23T04:08:10.564Z,10.15
2023-02-23T04:11:02.004Z,11.27
2023-02-23T04:13:33.639Z,10.38
2023-02-23T04:16:05.429Z,10.30
2023-02-23T04:18:35.268Z,11.10
2023-02-23T04:21:08.361Z,10.10
2023-02-23T04:23:38.099Z,11.60
2023-02-23T04:26:05.379Z,11.63
2023-02-23T04:28:33.587Z,10.85
2023-02-23T04:31:03.106Z,10.55
2023-02-23T04:33:32.328Z,10.65
2023-02-23T04:36:01.565Z,11.13
2023-02-23T04:38:29.859Z,10.68
2023-02-23T04:40:57.985Z,10.48
2023-02-23T04:43:25.621Z,10.88
2023-02-23T04:45:54.932Z,10.45
2023-02-23T04:48:25.250Z,11.20
2023-02-23T04:50:55.045Z,10.95
2023-02-23T04:53:21.946Z,10.60
2023-02-23T04:55:48.918Z,10.40
2023-02-23T04:58:17.655Z,12.05
2023-02-23T05:00:47.283Z,12.43
2023-02-23T05:03:15.274Z,12.65
2023-02-23T05:05:43.888Z,12.65
2023-02-23T05:08:13.638Z,13.77
2023-02-23T05:10:42.899Z,12.80
2023-02-23T05:13:12.278Z,12.98
2023-02-23T05:15:41.544Z,11.13
2023-02-23T05:18:10.259Z,11.68
2023-02-23T05:20:38.220Z,10.88
2023-02-23T05:23:07.222Z,11.88
2023-02-23T05:25:36.308Z,11.93
2023-02-23T05:28:05.878Z,11.70
2023-02-23T05:30:37.629Z,11.50
2023-02-23T05:33:05.049Z,12.32
2023-02-23T05:35:33.438Z,11.45
2023-02-23T05:38:03.168Z,12.48
2023-02-23T05:40:32.389Z,12.07
2023-02-23T05:43:02.414Z,11.93
2023-02-23T05:45:31.166Z,12.48
2023-02-23T05:47:59.376Z,12.10
2023-02-23T05:50:29.063Z,13.35
2023-02-23T05:52:59.382Z,12.25
2023-02-23T05:55:27.862Z,12.98
2023-02-23T05:57:57.783Z,12.68
2023-02-23T06:00:25.723Z,11.60
2023-02-23T06:02:55.051Z,12.93
2023-02-23T06:05:22.889Z,12.20
2023-02-23T06:07:50.777Z,13.32
2023-02-23T06:10:19.670Z,12.82
2023-02-23T06:12:48.895Z,12.43
2023-02-23T06:15:16.535Z,11.85
2023-02-23T06:17:45.279Z,13.52
2023-02-23T06:20:15.424Z,11.50
2023-02-23T06:22:43.472Z,13.05
2023-02-23T06:25:12.998Z,12.77
2023-02-23T06:27:40.730Z,12.98
2023-02-23T06:30:09.444Z,12.13
2023-02-23T06:32:37.459Z,12.05
2023-02-23T06:35:07.442Z,12.32
2023-02-23T06:37:37.969Z,12.63
2023-02-23T06:40:07.538Z,12.77
2023-02-23T06:42:37.440Z,12.40
2023-02-23T06:45:06.434Z,12.00
2023-02-23T06:47:33.789Z,12.80
2023-02-23T06:50:02.348Z,14.00
2023-02-23T06:52:31.811Z,12.85
2023-02-23T06:55:03.047Z,13.23
2023-02-23T06:57:31.541Z,11.70
2023-02-23T07:00:00.434Z,23.85
2023-02-23T07:02:28.358Z,21.55
2023-02-23T07:04:57.810Z,14.00
2023-02-23T07:07:25.547Z,15.02
2023-02-23T07:09:53.923Z,14.38
2023-02-23T07:12:21.795Z,12.93
2023-02-23T07:14:51.549Z,14.43
2023-02-23T07:17:20.596Z,14.02
2023-02-23T07:19:47.421Z,13.88
2023-02-23T07:22:17.115Z,14.35
2023-02-23T07:24:47.042Z,14.20
2023-02-23T07:27:15.857Z,14.45
2023-02-23T07:29:44.226Z,15.82
2023-02-23T07:32:12.092Z,16.92
2023-02-23T07:34:40.566Z,16.20
2023-02-23T07:37:09.866Z,16.73
2023-02-23T07:39:39.907Z,15.88
2023-02-23T07:42:07.390Z,16.73
2023-02-23T07:44:36.994Z,17.60
2023-02-23T07:47:04.572Z,16.45
2023-02-23T07:49:33.444Z,17.40
2023-02-23T07:52:02.188Z,17.42
2023-02-23T07:54:31.984Z,16.85
2023-02-23T07:57:01.523Z,17.77
2023-02-23T07:59:29.726Z,16.23
2023-02-23T08:01:59.279Z,17.52
2023-02-23T08:04:27.993Z,17.35
2023-02-23T08:06:55.292Z,17.75
2023-02-23T08:09:22.634Z,18.25
2023-02-23T08:11:50.437Z,17.23
2023-02-23T08:14:22.082Z,17.50
2023-02-23T08:16:51.462Z,17.48
2023-02-23T08:19:23.957Z,16.90
2023-02-23T08:21:54.973Z,16.67
2023-02-23T08:24:23.432Z,17.15
2023-02-23T08:26:52.148Z,16.92
2023-02-23T08:29:22.119Z,17.02
2023-02-23T08:31:52.506Z,16.75
2023-02-23T08:34:21.579Z,16.80
2023-02-23T08:36:51.885Z,16.55
2023-02-23T08:39:20.128Z,17.20
2023-02-23T08:41:48.161Z,18.33
2023-02-23T08:44:15.090Z,17.88
2023-02-23T08:46:42.380Z,17.75
2023-02-23T08:49:12.287Z,17.80
2023-02-23T08:51:41.886Z,17.60
2023-02-23T08:54:14.426Z,17.90
2023-02-23T08:56:42.843Z,18.60
2023-02-23T08:59:13.732Z,19.55
2023-02-23T09:01:41.211Z,18.20
2023-02-23T09:04:08.239Z,19.90
2023-02-23T09:06:37.502Z,18.90
2023-02-23T09:09:06.617Z,19.05
2023-02-23T09:11:36.185Z,19.30
2023-02-23T09:14:04.077Z,19.05
2023-02-23T09:16:32.967Z,19.30
2023-02-23T09:19:02.304Z,18.90
2023-02-23T09:21:31.814Z,18.95
2023-02-23T09:24:00.484Z,18.38
2023-02-23T09:26:31.041Z,17.98
2023-02-23T09:29:00.620Z,19.10
2023-02-23T09:31:30.162Z,18.58
2023-02-23T09:34:02.654Z,19.05
2023-02-23T09:36:32.795Z,19.48
2023-02-23T09:39:03.426Z,18.58
2023-02-23T09:41:54.116Z,19.90
2023-02-23T09:44:39.813Z,20.98
2023-02-23T09:47:22.795Z,20.20
2023-02-23T09:49:53.477Z,20.30
2023-02-23T09:52:28.812Z,20.23
2023-02-23T09:54:59.779Z,20.50
2023-02-23T09:57:38.326Z,19.35
2023-02-23T10:00:25.380Z,19.58
2023-02-23T10:03:00.095Z,19.60
2023-02-23T10:05:34.337Z,18.88
2023-02-23T10:08:10.031Z,19.08
2023-02-23T10:10:50.047Z,19.38
2023-02-23T10:13:49.755Z,20.63
2023-02-23T10:16:23.350Z,19.88
2023-02-23T10:18:51.526Z,20.15
2023-02-23T10:21:32.879Z,18.92
2023-02-23T10:24:08.169Z,19.45
2023-02-23T10:26:44.911Z,18.92
2023-02-23T10:29:34.986Z,20.02
2023-02-23T10:32:14.128Z,19.45
2023-02-23T10:34:42.610Z,20.55
2023-02-23T10:37:13.262Z,20.05
2023-02-23T10:39:42.324Z,19.95
2023-02-23T10:42:19.040Z,20.75
2023-02-23T10:44:47.429Z,20.92
2023-02-23T10:47:21.405Z,19.77
2023-02-23T10:49:52.301Z,21.50
2023-02-23T10:52:22.857Z,19.95
2023-02-23T10:54:52.048Z,21.55
2023-02-23T10:57:26.936Z,21.30
2023-02-23T11:00:10.369Z,21.00
2023-02-23T11:02:37.720Z,20.13
2023-02-23T11:05:08.919Z,19.90
2023-02-23T11:07:38.733Z,20.00
2023-02-23T11:10:30.306Z,20.60
2023-02-23T11:12:57.754Z,19.25
2023-02-23T11:15:31.970Z,20.17
2023-02-23T11:18:08.373Z,20.45
2023-02-23T11:20:40.573Z,21.77
2023-02-23T11:23:18.008Z,20.65
2023-02-23T11:25:49.423Z,20.42
2023-02-23T11:28:31.408Z,20.63
2023-02-23T11:31:09.137Z,22.05
2023-02-23T11:33:39.756Z,20.60
2023-02-23T11:36:23.581Z,21.70
2023-02-23T11:39:03.937Z,22.00
2023-02-23T11:41:35.436Z,22.02
2023-02-23T11:44:06.393Z,23.17
2023-02-23T11:46:39.299Z,22.15
2023-02-23T11:49:14.835Z,22.70
2023-02-23T11:51:49.410Z,24.23
2023-02-23T11:54:26.177Z,22.77
2023-02-23T11:56:57.606Z,24.35
2023-02-23T11:59:28.499Z,22.83
2023-02-23T12:02:05.465Z,23.35
2023-02-23T12:07:35.013Z,21.10
2023-02-23T12:10:13.692Z,22.58
2023-02-23T12:12:54.947Z,22.35
2023-02-23T12:15:32.625Z,23.10
2023-02-23T12:18:09.174Z,21.10
2023-02-23T12:20:42.350Z,21.92
2023-02-23T12:23:19.986Z,22.92
2023-02-23T12:26:01.256Z,23.40
2023-02-23T12:28:49.840Z,22.00
2023-02-23T12:31:28.795Z,22.10
2023-02-23T12:34:03.333Z,21.70
2023-02-23T12:36:43.337Z,23.08
2023-02-23T12:39:36.319Z,22.75
2023-02-23T12:42:27.236Z,21.75
2023-02-23T12:44:59.113Z,21.45
2023-02-23T12:47:42.255Z,21.33
2023-02-23T12:50:27.299Z,21.30
2023-02-23T12:52:58.884Z,24.23
2023-02-23T12:55:42.692Z,21.90
2023-02-23T12:58:23.178Z,21.60
2023-02-23T13:01:06.848Z,21.92
2023-02-23T13:03:50.289Z,21.55
2023-02-23T13:06:39.991Z,23.70
2023-02-23T13:09:17.908Z,23.60
2023-02-23T13:12:04.349Z,23.35
2023-02-23T13:14:48.264Z,23.75
2023-02-23T13:17:37.341Z,22.42
2023-02-23T13:20:22.261Z,21.83
2023-02-23T13:23:10.271Z,22.70
2023-02-23T13:26:11.905Z,24.20
2023-02-23T13:28:42.785Z,23.50
2023-02-23T13:31:23.177Z,22.20
2023-02-23T13:33:52.232Z,23.63
2023-02-23T13:36:22.507Z,23.05
2023-02-23T13:39:18.481Z,23.02
2023-02-23T13:44:38.218Z,23.10
2023-02-23T13:47:11.148Z,25.63
2023-02-23T13:49:47.260Z,22.88
2023-02-23T13:52:31.425Z,24.13
2023-02-23T13:55:04.120Z,24.45
2023-02-23T13:57:34.162Z,24.02
2023-02-23T14:00:03.935Z,24.10
2023-02-23T14:02:42.556Z,25.27
2023-02-23T14:05:24.005Z,24.27
2023-02-23T14:07:59.418Z,25.15
2023-02-23T14:10:36.374Z,24.45
2023-02-23T14:13:23.002Z,24.98
2023-02-23T14:16:14.973Z,25.50
2023-02-23T14:19:10.829Z,24.20
2023-02-23T14:21:53.401Z,25.00
2023-02-23T14:24:25.491Z,24.80
2023-02-23T14:27:40.489Z,25.58
2023-02-23T14:30:12.190Z,23.73
2023-02-23T14:32:47.056Z,24.88
2023-02-23T14:35:38.694Z,25.45
2023-02-23T14:38:45.794Z,24.27
2023-02-23T14:41:15.425Z,25.00
2023-02-23T14:43:46.567Z,25.02
2023-02-23T14:46:20.825Z,23.45
2023-02-23T14:49:01.903Z,23.80
2023-02-23T14:51:42.419Z,25.02
2023-02-23T14:54:16.099Z,25.35
2023-02-23T14:56:49.083Z,25.60
2023-02-23T14:59:23.070Z,25.83
2023-02-23T15:01:53.285Z,27.92
2023-02-23T15:04:26.397Z,26.17
2023-02-23T15:06:58.203Z,26.63
2023-02-23T15:09:41.376Z,25.05
2023-02-23T15:12:19.674Z,23.80
2023-02-23T15:14:52.221Z,25.73
2023-02-23T15:17:26.286Z,24.23
2023-02-23T15:20:14.291Z,24.70
2023-02-23T15:22:49.447Z,23.38
2023-02-23T15:25:23.498Z,24.92
2023-02-23T15:27:52.638Z,24.77
2023-02-23T15:30:32.982Z,28.00
2023-02-23T15:33:02.748Z,24.23
2023-02-23T15:35:35.953Z,24.25
2023-02-23T15:38:18.097Z,24.98
2023-02-23T15:41:03.595Z,25.50
2023-02-23T15:43:35.346Z,23.70
2023-02-23T15:46:06.753Z,25.00
2023-02-23T15:48:52.846Z,24.30
2023-02-23T15:51:26.083Z,26.80
2023-02-23T15:53:54.577Z,25.45
2023-02-23T15:56:28.993Z,27.70
2023-02-23T15:59:04.667Z,28.60
2023-02-23T16:01:33.872Z,28.17
2023-02-23T16:04:03.732Z,25.75
2023-02-23T16:06:40.766Z,25.20
2023-02-23T16:09:27.042Z,25.20
2023-02-23T16:12:03.525Z,26.08
2023-02-23T16:14:50.599Z,26.52
2023-02-23T16:17:28.568Z,25.02
2023-02-23T16:20:14.634Z,25.17
2023-02-23T16:22:47.336Z,25.35
2023-02-23T16:25:23.505Z,25.35
2023-02-23T16:28:05.768Z,26.33
2023-02-23T16:30:36.023Z,25.77
2023-02-23T16:33:11.713Z,26.08
2023-02-23T16:35:48.726Z,25.33
2023-02-23T16:38:29.189Z,26.33
2023-02-23T16:40:58.161Z,27.45
2023-02-23T16:43:26.374Z,26.02
2023-02-23T16:45:54.790Z,26.20
2023-02-23T16:48:25.113Z,25.73
2023-02-23T16:50:53.521Z,26.17
2023-02-23T16:53:23.608Z,26.15
2023-02-23T16:55:56.037Z,26.42
2023-02-23T16:58:26.838Z,28.17
2023-02-23T17:00:57.584Z,26.58
2023-02-23T17:03:32.628Z,27.15
2023-02-23T17:08:38.189Z,25.23
2023-02-23T17:11:08.433Z,25.60
2023-02-23T17:13:37.389Z,25.88
2023-02-23T17:16:10.164Z,27.10
2023-02-23T17:18:42.970Z,26.60
2023-02-23T17:21:14.942Z,27.35
2023-02-23T17:23:51.468Z,26.60
2023-02-23T17:26:23.885Z,25.95
2023-02-23T17:28:54.280Z,25.40
2023-02-23T17:31:25.698Z,26.00
2023-02-23T17:33:57.381Z,26.85
2023-02-23T17:36:29.221Z,27.58
2023-02-23T17:39:00.015Z,25.17
2023-02-23T17:41:31.267Z,26.33
2023-02-23T17:44:02.000Z,25.83
2023-02-23T17:46:31.079Z,26.58
2023-02-23T17:49:00.286Z,26.73
2023-02-23T17:51:29.110Z,27.02
2023-02-23T17:53:57.250Z,26.75
2023-02-23T17:56:26.422Z,26.38
2023-02-23T17:58:54.728Z,26.38
2023-02-23T18:01:23.856Z,26.90
2023-02-23T18:03:54.254Z,25.92
2023-02-23T18:06:22.330Z,26.85
2023-02-23T18:08:51.639Z,28.33
2023-02-23T18:11:21.091Z,28.13
2023-02-23T18:13:52.473Z,27.65
2023-02-23T18:16:22.789Z,26.85
2023-02-23T18:18:51.317Z,25.52
2023-02-23T18:21:24.744Z,27.65
2023-02-23T18:23:53.299Z,29.15
2023-02-23T18:26:25.747Z,26.27
2023-02-23T18:28:54.555Z,27.50
2023-02-23T18:31:26.276Z,28.50
2023-02-23T18:33:54.882Z,26.77
2023-02-23T18:36:28.724Z,29.40
2023-02-23T18:38:59.889Z,27.70
2023-02-23T18:41:31.645Z,26.90
2023-02-23T18:44:01.779Z,25.90
2023-02-23T18:46:30.961Z,27.05
2023-02-23T18:49:00.358Z,27.85
2023-02-23T18:51:28.659Z,28.73
2023-02-23T18:53:57.172Z,27.00
2023-02-23T18:56:28.915Z,25.83
2023-02-23T18:59:02.676Z,27.73
2023-02-23T19:01:35.730Z,27.38
2023-02-23T19:04:07.819Z,26.33
2023-02-23T19:06:39.981Z,26.33
2023-02-23T19:09:13.790Z,26.35
2023-02-23T19:11:44.114Z,29.13
2023-02-23T19:14:16.605Z,27.98
2023-02-23T19:16:47.893Z,28.67
2023-02-23T19:19:17.789Z,30.02
2023-02-23T19:21:46.689Z,29.83
2023-02-23T19:24:15.803Z,29.33
2023-02-23T19:26:45.040Z,30.60
2023-02-23T19:29:13.373Z,32.90
2023-02-23T19:31:42.204Z,30.52
2023-02-23T19:34:11.844Z,30.00
2023-02-23T19:36:40.367Z,30.33
2023-02-23T19:39:16.343Z,29.23
2023-02-23T19:41:47.911Z,27.63
2023-02-23T19:44:17.164Z,30.27
2023-02-23T19:46:46.727Z,27.70
2023-02-23T19:49:14.480Z,28.20
2023-02-23T19:51:43.464Z,28.08
2023-02-23T19:54:12.295Z,27.23
2023-02-23T19:56:40.693Z,28.17
2023-02-23T19:59:09.388Z,32.55
2023-02-23T20:01:37.822Z,31.35
2023-02-23T20:04:07.056Z,28.98
2023-02-23T20:06:41.243Z,27.40
2023-02-23T20:09:10.511Z,27.10
2023-02-23T20:11:40.743Z,28.58
2023-02-23T20:14:10.370Z,27.05
2023-02-23T20:16:40.276Z,27.00
2023-02-23T20:19:07.858Z,27.85
2023-02-23T20:21:36.925Z,27.92
2023-02-23T20:24:05.683Z,26.23
2023-02-23T20:26:39.132Z,26.38
2023-02-23T20:29:11.362Z,26.17
2023-02-23T20:31:42.110Z,28.13
2023-02-23T20:34:11.876Z,28.00
2023-02-23T20:36:40.612Z,27.35
2023-02-23T20:39:11.023Z,28.83
2023-02-23T20:41:43.421Z,27.88
2023-02-23T20:44:14.100Z,28.80
2023-02-23T20:46:44.390Z,29.67
2023-02-23T20:49:13.426Z,28.85
2023-02-23T20:51:43.842Z,27.13
2023-02-23T20:54:13.149Z,28.92
2023-02-23T20:56:41.723Z,29.08
2023-02-23T20:59:11.375Z,28.40
2023-02-23T21:01:41.812Z,30.45
2023-02-23T21:04:10.278Z,28.88
2023-02-23T21:06:38.531Z,30.95
2023-02-23T21:09:08.236Z,29.65
2023-02-23T21:11:37.219Z,29.17
2023-02-23T21:14:09.314Z,29.25
2023-02-23T21:16:41.505Z,28.70
2023-02-23T21:19:11.546Z,29.45
2023-02-23T21:21:41.640Z,30.17
2023-02-23T21:24:11.962Z,29.25
2023-02-23T21:26:40.670Z,29.55
2023-02-23T21:29:12.892Z,28.23
2023-02-23T21:31:43.756Z,30.65
2023-02-23T21:34:12.670Z,30.60
2023-02-23T21:36:40.932Z,31.33
2023-02-23T21:39:11.200Z,32.33
2023-02-23T21:41:40.592Z,31.02
2023-02-23T21:44:10.492Z,30.15
2023-02-23T21:46:39.131Z,29.92
2023-02-23T21:49:08.689Z,29.67
2023-02-23T21:51:37.687Z,29.85
2023-02-23T21:54:06.750Z,29.98
2023-02-23T21:56:37.557Z,30.92
2023-02-23T21:59:08.786Z,30.65
2023-02-23T22:01:38.866Z,33.17
2023-02-23T22:04:12.858Z,30.98
2023-02-23T22:06:43.278Z,30.00
2023-02-23T22:09:12.740Z,30.48
2023-02-23T22:11:46.016Z,30.10
2023-02-23T22:14:18.862Z,28.65
2023-02-23T22:16:47.643Z,27.92
2023-02-23T22:19:18.876Z,30.10
2023-02-23T22:21:50.561Z,28.52
2023-02-23T22:24:20.259Z,28.50
2023-02-23T22:26:55.230Z,28.27
2023-02-23T22:29:27.326Z,28.40
2023-02-23T22:31:57.433Z,26.08
2023-02-23T22:34:26.489Z,25.50
2023-02-23T22:36:54.315Z,27.50
2023-02-23T22:39:22.441Z,27.38
2023-02-23T22:41:51.192Z,28.73
2023-02-23T22:44:21.960Z,28.27
2023-02-23T22:46:51.755Z,29.02
2023-02-23T22:49:20.397Z,29.85
2023-02-23T22:51:49.769Z,28.08
2023-02-23T22:54:18.306Z,29.02
2023-02-23T22:56:47.465Z,29.35
2023-02-23T22:59:17.752Z,28.75
2023-02-23T23:01:50.655Z,29.13
2023-02-23T23:04:20.333Z,30.67
2023-02-23T23:06:49.982Z,31.05
2023-02-23T23:09:22.681Z,32.35
2023-02-23T23:11:52.370Z,28.80
2023-02-23T23:14:19.906Z,29.90
2023-02-23T23:16:48.954Z,30.58
2023-02-23T23:19:24.587Z,30.13
2023-02-23T23:21:56.245Z,28.40
2023-02-23T23:24:26.534Z,30.10
2023-02-23T23:26:55.989Z,28.48
2023-02-23T23:29:26.684Z,31.08
2023-02-23T23:31:57.071Z,31.60
2023-02-23T23:34:25.597Z,31.48
2023-02-23T23:36:55.472Z,29.90
2023-02-23T23:39:26.805Z,28.13
2023-02-23T23:41:54.769Z,28.30
2023-02-23T23:44:25.164Z,29.90
2023-02-23T23:46:54.086Z,27.00
2023-02-23T23:49:26.479Z,29.38
2023-02-23T23:51:56.756Z,27.02
2023-02-23T23:54:28.169Z,27.10
2023-02-23T23:56:55.290Z,26.27
2023-02-23T23:59:25.117Z,28.27
